Time;durP1;ratioP1;P1;durP2;ratioP2;P2;SDS_P1;SDS_P2;PMS_P1;PMS_P2;Temp;Humidity;BMP_temperature;BMP_pressure;BME280_temperature;BME280_humidity;BME280_pressure;Samples;Min_cycle;Max_cycle;Signal;HPM_P1;HPM_P2
2023/01/23 00:01:15;;;;;;;46.03;25.00;;;;;;;;;;4958462;28;20277;-75
2023/01/23 00:03:44;;;;;;;39.57;22.67;;;;;;;;;;4972835;28;20049;-76
2023/01/23 00:06:11;;;;;;;45.80;22.77;;;;;;;;;;4971100;28;20278;-75
2023/01/23 00:08:38;;;;;;;41.40;24.10;;;;;;;;;;4948775;28;20644;-76
2023/01/23 00:11:05;;;;;;;46.20;23.87;;;;;;;;;;4948970;28;20320;-74
2023/01/23 00:13:31;;;;;;;39.03;22.37;;;;;;;;;;4954469;28;20292;-76
2023/01/23 00:15:57;;;;;;;41.90;23.17;;;;;;;;;;4971569;28;20102;-75
2023/01/23 00:18:23;;;;;;;41.03;22.20;;;;;;;;;;4966610;28;20113;-76
2023/01/23 00:20:49;;;;;;;41.23;22.53;;;;;;;;;;4965540;28;20035;-76
2023/01/23 00:23:21;;;;;;;36.30;21.07;;;;;;;;;;4967014;28;20586;-76
2023/01/23 00:25:47;;;;;;;36.77;20.60;;;;;;;;;;4965858;28;20053;-76
2023/01/23 00:28:13;;;;;;;36.70;20.77;;;;;;;;;;4952223;28;20755;-76
2023/01/23 00:30:39;;;;;;;41.17;22.60;;;;;;;;;;4966019;28;20035;-76
2023/01/23 00:33:05;;;;;;;39.63;21.07;;;;;;;;;;4951347;28;20027;-77
2023/01/23 00:35:31;;;;;;;38.30;21.77;;;;;;;;;;4971027;28;21636;-74
2023/01/23 00:37:57;;;;;;;34.97;19.63;;;;;;;;;;4954432;28;20117;-76
2023/01/23 00:40:23;;;;;;;38.50;21.83;;;;;;;;;;4966967;28;20027;-75
2023/01/23 00:42:49;;;;;;;35.20;19.63;;;;;;;;;;4949946;28;20341;-76
2023/01/23 00:45:15;;;;;;;39.60;20.87;;;;;;;;;;4965401;28;20286;-76
2023/01/23 00:47:41;;;;;;;38.80;21.10;;;;;;;;;;4966123;28;20030;-75
2023/01/23 00:50:07;;;;;;;34.93;20.43;;;;;;;;;;4949035;28;20045;-76
2023/01/23 00:52:33;;;;;;;35.47;21.33;;;;;;;;;;4968462;28;20034;-76
2023/01/23 00:55:02;;;;;;;36.33;20.17;;;;;;;;;;4954480;28;20770;-76
2023/01/23 00:57:30;;;;;;;37.27;22.07;;;;;;;;;;4971505;28;20274;-76
2023/01/23 00:59:58;;;;;;;39.77;21.47;;;;;;;;;;4954095;28;20317;-77
2023/01/23 01:02:24;;;;;;;36.37;21.37;;;;;;;;;;4971725;28;20282;-75
2023/01/23 01:04:50;;;;;;;39.47;21.97;;;;;;;;;;4966854;28;20340;-75
2023/01/23 01:07:19;;;;;;;35.57;20.43;;;;;;;;;;4969348;28;20290;-76
2023/01/23 01:09:47;;;;;;;38.57;21.27;;;;;;;;;;4971156;28;20045;-77
2023/01/23 01:12:13;;;;;;;38.70;21.53;;;;;;;;;;4950284;28;21115;-75
2023/01/23 01:14:39;;;;;;;37.70;20.90;;;;;;;;;;4954687;28;20417;-76
2023/01/23 01:17:05;;;;;;;37.20;20.73;;;;;;;;;;4954687;28;20113;-76
2023/01/23 01:19:31;;;;;;;37.17;22.07;;;;;;;;;;4966099;28;20038;-75
2023/01/23 01:22:00;;;;;;;35.20;21.13;;;;;;;;;;4969847;28;20266;-76
2023/01/23 01:24:28;;;;;;;38.40;20.67;;;;;;;;;;4971878;28;20038;-74
2023/01/23 01:26:54;;;;;;;40.53;22.27;;;;;;;;;;4974126;28;20413;-76
2023/01/23 01:29:20;;;;;;;37.93;21.10;;;;;;;;;;4958186;28;20286;-76
2023/01/23 01:31:46;;;;;;;36.03;20.93;;;;;;;;;;4973527;28;20046;-76
2023/01/23 01:34:12;;;;;;;38.63;22.07;;;;;;;;;;4954382;28;20058;-76
2023/01/23 01:36:39;;;;;;;37.97;22.27;;;;;;;;;;4956999;28;20027;-76
2023/01/23 01:39:05;;;;;;;40.37;20.70;;;;;;;;;;4969926;28;20611;-77
2023/01/23 01:41:31;;;;;;;37.27;19.80;;;;;;;;;;4957208;28;20302;-76
2023/01/23 01:43:58;;;;;;;39.93;20.50;;;;;;;;;;4974374;28;20302;-76
2023/01/23 01:46:24;;;;;;;35.97;19.03;;;;;;;;;;4966956;28;20286;-76
2023/01/23 01:49:00;;;;;;;37.80;21.23;;;;;;;;;;4967774;28;20289;-76
2023/01/23 01:51:29;;;;;;;34.53;18.93;;;;;;;;;;4968484;28;20031;-76
2023/01/23 01:54:10;;;;;;;35.20;19.13;;;;;;;;;;4953411;28;20344;-75
2023/01/23 01:56:42;;;;;;;36.73;19.47;;;;;;;;;;4959556;28;20296;-76
2023/01/23 01:59:11;;;;;;;36.23;20.33;;;;;;;;;;4969765;28;20274;-76
2023/01/23 02:01:38;;;;;;;33.87;20.47;;;;;;;;;;4974649;28;20305;-76
2023/01/23 02:04:04;;;;;;;33.70;19.80;;;;;;;;;;4955376;28;20918;-75
2023/01/23 02:06:30;;;;;;;34.20;20.10;;;;;;;;;;4954282;28;20361;-75
2023/01/23 02:09:00;;;;;;;34.30;19.83;;;;;;;;;;4973888;28;21312;-75
2023/01/23 02:11:26;;;;;;;33.47;19.73;;;;;;;;;;4955655;28;20350;-75
2023/01/23 02:13:55;;;;;;;31.00;18.40;;;;;;;;;;4955128;28;20365;-75
2023/01/23 02:16:24;;;;;;;33.90;20.20;;;;;;;;;;4971491;28;20041;-76
2023/01/23 02:18:52;;;;;;;34.03;19.07;;;;;;;;;;4962248;28;20274;-77
2023/01/23 02:21:20;;;;;;;32.37;19.13;;;;;;;;;;4954081;28;20089;-76
2023/01/23 02:24:06;;;;;;;32.83;18.97;;;;;;;;;;4968095;28;20419;-76
2023/01/23 02:26:43;;;;;;;31.17;18.10;;;;;;;;;;4967383;28;20360;-77
2023/01/23 02:29:09;;;;;;;26.80;15.57;;;;;;;;;;4957199;28;20285;-76
2023/01/23 02:31:36;;;;;;;33.67;20.00;;;;;;;;;;4969267;28;20278;-76
2023/01/23 02:34:02;;;;;;;33.33;18.03;;;;;;;;;;4952217;28;20289;-76
2023/01/23 02:36:29;;;;;;;31.10;19.07;;;;;;;;;;4972288;28;20648;-76
2023/01/23 02:39:07;;;;;;;32.00;19.90;;;;;;;;;;4953293;28;20284;-76
2023/01/23 02:41:34;;;;;;;32.93;19.67;;;;;;;;;;4966360;28;20320;-77
2023/01/23 02:44:02;;;;;;;31.70;19.33;;;;;;;;;;4951695;28;20302;-75
2023/01/23 02:46:28;;;;;;;30.87;18.50;;;;;;;;;;4955978;28;20293;-75
2023/01/23 02:48:54;;;;;;;31.50;19.13;;;;;;;;;;4966592;28;20591;-76
2023/01/23 02:51:21;;;;;;;31.23;18.87;;;;;;;;;;4972891;28;20739;-76
2023/01/23 02:53:47;;;;;;;34.83;19.73;;;;;;;;;;4956211;28;20309;-76
2023/01/23 02:56:13;;;;;;;37.00;20.00;;;;;;;;;;4967159;28;20297;-75
2023/01/23 03:01:26;;;;;;;34.20;19.87;;;;;;;;;;4973007;28;20421;-76
2023/01/23 03:03:54;;;;;;;33.90;19.83;;;;;;;;;;4954582;28;20274;-77
2023/01/23 03:06:23;;;;;;;36.57;20.57;;;;;;;;;;4951637;28;20630;-76
2023/01/23 03:08:49;;;;;;;30.97;18.60;;;;;;;;;;4967593;28;20290;-76
2023/01/23 03:11:17;;;;;;;33.63;20.47;;;;;;;;;;4955898;28;20262;-75
2023/01/23 03:13:46;;;;;;;37.13;20.63;;;;;;;;;;4954856;28;20754;-76
2023/01/23 03:16:14;;;;;;;32.30;19.67;;;;;;;;;;4966955;28;20378;-75
2023/01/23 03:18:40;;;;;;;34.80;20.17;;;;;;;;;;4969706;28;20271;-76
2023/01/23 03:21:07;;;;;;;34.67;20.87;;;;;;;;;;4972887;28;20278;-77
2023/01/23 03:23:33;;;;;;;40.53;22.10;;;;;;;;;;4967395;28;20277;-76
2023/01/23 03:26:01;;;;;;;38.33;21.87;;;;;;;;;;4969521;28;20293;-74
2023/01/23 03:31:13;;;;;;;36.33;20.30;;;;;;;;;;4974372;28;20328;-75
2023/01/23 03:33:42;;;;;;;36.53;20.70;;;;;;;;;;4969345;28;20278;-76
2023/01/23 03:36:08;;;;;;;36.97;21.23;;;;;;;;;;4955158;28;20290;-75
2023/01/23 03:38:37;;;;;;;39.83;21.23;;;;;;;;;;4971022;28;20364;-75
2023/01/23 03:41:26;;;;;;;39.10;22.43;;;;;;;;;;4968025;28;20325;-76
2023/01/23 03:43:52;;;;;;;35.37;20.70;;;;;;;;;;4951071;28;20277;-76
2023/01/23 03:46:18;;;;;;;38.47;21.30;;;;;;;;;;4955788;28;20290;-76
2023/01/23 03:48:44;;;;;;;38.77;22.10;;;;;;;;;;4957161;28;20066;-76
2023/01/23 03:51:10;;;;;;;40.27;22.37;;;;;;;;;;4950836;28;20321;-75
2023/01/23 03:53:36;;;;;;;45.50;23.27;;;;;;;;;;4972132;28;20444;-76
2023/01/23 03:56:02;;;;;;;43.83;23.20;;;;;;;;;;4971419;28;20035;-74
2023/01/23 03:58:29;;;;;;;46.20;24.20;;;;;;;;;;4966595;28;20026;-76
2023/01/23 04:00:57;;;;;;;46.47;23.47;;;;;;;;;;4963795;28;20305;-76
2023/01/23 04:03:23;;;;;;;48.03;24.40;;;;;;;;;;4949665;28;20306;-75
2023/01/23 04:05:54;;;;;;;40.40;21.40;;;;;;;;;;4955271;28;20336;-76
2023/01/23 04:08:21;;;;;;;49.23;24.63;;;;;;;;;;4971991;28;20085;-76
2023/01/23 04:10:47;;;;;;;48.00;23.50;;;;;;;;;;4955533;28;20373;-76
2023/01/23 04:13:16;;;;;;;43.23;23.37;;;;;;;;;;4973430;28;20470;-76
2023/01/23 04:15:42;;;;;;;41.77;23.17;;;;;;;;;;4966379;28;20035;-76
2023/01/23 04:18:08;;;;;;;42.23;21.67;;;;;;;;;;4969445;28;20282;-76
2023/01/23 04:20:34;;;;;;;43.37;23.43;;;;;;;;;;4950021;28;20282;-77
2023/01/23 04:23:02;;;;;;;42.23;22.87;;;;;;;;;;4954950;28;20791;-76
2023/01/23 04:25:31;;;;;;;43.60;22.03;;;;;;;;;;4972173;28;20062;-75
2023/01/23 04:27:59;;;;;;;39.27;22.37;;;;;;;;;;4968056;28;20381;-76
2023/01/23 04:30:25;;;;;;;40.77;21.93;;;;;;;;;;4970980;28;20768;-76
2023/01/23 04:32:51;;;;;;;38.63;22.43;;;;;;;;;;4953820;28;20293;-76
2023/01/23 04:35:17;;;;;;;35.10;20.73;;;;;;;;;;4959578;28;20038;-76
2023/01/23 04:37:43;;;;;;;37.83;21.57;;;;;;;;;;4967932;28;20452;-76
2023/01/23 04:40:10;;;;;;;37.03;21.63;;;;;;;;;;4965971;28;20046;-75
2023/01/23 04:42:36;;;;;;;37.23;21.27;;;;;;;;;;4955089;28;20026;-76
2023/01/23 04:45:02;;;;;;;32.20;18.90;;;;;;;;;;4965173;28;20291;-76
2023/01/23 04:47:28;;;;;;;37.13;19.90;;;;;;;;;;4954932;28;20603;-76
2023/01/23 04:49:53;;;;;;;36.90;20.57;;;;;;;;;;4955138;28;20034;-75
2023/01/23 04:52:19;;;;;;;33.73;20.27;;;;;;;;;;4970089;28;20523;-75
2023/01/23 04:54:45;;;;;;;34.97;20.63;;;;;;;;;;4971144;28;20106;-76
2023/01/23 04:57:11;;;;;;;34.80;19.37;;;;;;;;;;4967982;28;20042;-76
2023/01/23 04:59:37;;;;;;;34.90;19.73;;;;;;;;;;4966715;28;20278;-75
2023/01/23 05:02:03;;;;;;;35.37;18.37;;;;;;;;;;4959092;28;20086;-76
2023/01/23 05:04:29;;;;;;;36.57;21.00;;;;;;;;;;4954747;28;20472;-76
2023/01/23 05:06:55;;;;;;;34.90;19.60;;;;;;;;;;4955314;28;20368;-76
2023/01/23 05:09:21;;;;;;;34.30;20.60;;;;;;;;;;4954589;28;21771;-75
2023/01/23 05:11:50;;;;;;;35.70;20.67;;;;;;;;;;4975155;28;20038;-76
2023/01/23 05:14:16;;;;;;;35.40;20.43;;;;;;;;;;4970577;28;20687;-76
2023/01/23 05:16:42;;;;;;;33.07;19.90;;;;;;;;;;4974789;28;20285;-76
2023/01/23 05:19:08;;;;;;;33.33;19.67;;;;;;;;;;4958336;28;20027;-77
2023/01/23 05:21:34;;;;;;;35.87;21.13;;;;;;;;;;4975080;28;20120;-76
2023/01/23 05:24:00;;;;;;;38.90;21.83;;;;;;;;;;4957329;28;20113;-77
2023/01/23 05:26:26;;;;;;;37.13;20.53;;;;;;;;;;4974938;28;20420;-77
2023/01/23 05:28:52;;;;;;;36.20;20.40;;;;;;;;;;4972182;28;20035;-77
2023/01/23 05:31:18;;;;;;;39.57;21.53;;;;;;;;;;4970682;28;20035;-76
2023/01/23 05:33:44;;;;;;;35.33;21.93;;;;;;;;;;4970394;28;20075;-77
2023/01/23 05:36:10;;;;;;;37.43;21.80;;;;;;;;;;4969567;28;20466;-77
2023/01/23 05:38:39;;;;;;;38.83;21.83;;;;;;;;;;4954071;28;20464;-77
2023/01/23 05:41:05;;;;;;;40.90;21.80;;;;;;;;;;4957204;28;21493;-77
2023/01/23 05:43:33;;;;;;;37.10;20.37;;;;;;;;;;4956871;28;20369;-77
2023/01/23 05:46:00;;;;;;;44.20;24.57;;;;;;;;;;4956870;28;20031;-77
2023/01/23 05:48:26;;;;;;;36.80;21.40;;;;;;;;;;4952044;28;20282;-77
2023/01/23 05:50:54;;;;;;;46.93;23.90;;;;;;;;;;4953115;28;20368;-77
2023/01/23 05:53:20;;;;;;;45.57;23.30;;;;;;;;;;4957934;28;20301;-77
2023/01/23 05:55:48;;;;;;;50.10;26.00;;;;;;;;;;4958449;28;20619;-76
2023/01/23 05:58:19;;;;;;;51.40;23.47;;;;;;;;;;4956687;28;20059;-76
2023/01/23 06:00:45;;;;;;;42.90;22.23;;;;;;;;;;4973229;28;20286;-77
2023/01/23 06:03:14;;;;;;;44.83;23.60;;;;;;;;;;4951320;28;20274;-76
2023/01/23 06:05:40;;;;;;;47.00;24.97;;;;;;;;;;4968237;28;20282;-76
2023/01/23 06:08:06;;;;;;;49.70;23.47;;;;;;;;;;4956559;28;20384;-76
2023/01/23 06:10:32;;;;;;;46.60;24.07;;;;;;;;;;4973174;28;20278;-75
2023/01/23 06:12:58;;;;;;;52.20;25.33;;;;;;;;;;4956328;28;20289;-76
2023/01/23 06:15:24;;;;;;;56.10;25.73;;;;;;;;;;4967106;28;20619;-76
2023/01/23 06:17:50;;;;;;;50.73;24.83;;;;;;;;;;4973560;28;20042;-76
2023/01/23 06:20:16;;;;;;;53.20;25.63;;;;;;;;;;4968156;28;20050;-77
2023/01/23 06:22:42;;;;;;;55.67;25.20;;;;;;;;;;4973497;28;20288;-77
2023/01/23 06:25:08;;;;;;;55.23;25.43;;;;;;;;;;4973198;28;20364;-76
2023/01/23 06:27:34;;;;;;;54.20;25.37;;;;;;;;;;4957404;28;20110;-76
2023/01/23 06:30:00;;;;;;;55.27;25.77;;;;;;;;;;4958144;28;20282;-77
2023/01/23 06:32:26;;;;;;;49.10;24.33;;;;;;;;;;4955952;28;20357;-76
2023/01/23 06:34:52;;;;;;;49.93;25.53;;;;;;;;;;4976064;28;20039;-76
2023/01/23 06:37:18;;;;;;;50.87;24.53;;;;;;;;;;4974382;28;20146;-76
2023/01/23 06:39:44;;;;;;;49.33;24.17;;;;;;;;;;4973246;28;20055;-76
2023/01/23 06:42:10;;;;;;;49.23;24.10;;;;;;;;;;4967104;28;21612;-77
2023/01/23 06:44:36;;;;;;;46.40;23.23;;;;;;;;;;4960111;28;20031;-76
2023/01/23 06:47:03;;;;;;;49.13;23.83;;;;;;;;;;4953150;28;20286;-76
2023/01/23 06:49:29;;;;;;;51.73;24.80;;;;;;;;;;4956812;28;20344;-75
2023/01/23 06:51:55;;;;;;;46.77;22.93;;;;;;;;;;4972638;28;20278;-77
2023/01/23 06:54:21;;;;;;;51.23;24.17;;;;;;;;;;4968662;28;20674;-77
2023/01/23 06:56:48;;;;;;;47.77;22.53;;;;;;;;;;4956193;28;20305;-75
2023/01/23 06:59:14;;;;;;;44.77;22.67;;;;;;;;;;4955671;28;20486;-77
2023/01/23 07:01:40;;;;;;;45.47;23.40;;;;;;;;;;4953346;28;20274;-77
2023/01/23 07:04:07;;;;;;;43.37;22.87;;;;;;;;;;4956000;28;20278;-76
2023/01/23 07:06:34;;;;;;;45.17;23.20;;;;;;;;;;4968097;28;20348;-76
2023/01/23 07:09:00;;;;;;;48.70;24.77;;;;;;;;;;4950747;28;20278;-76
2023/01/23 07:11:26;;;;;;;42.40;22.33;;;;;;;;;;4969259;28;20278;-77
2023/01/23 07:13:52;;;;;;;43.37;23.27;;;;;;;;;;4971082;28;20405;-77
2023/01/23 07:16:18;;;;;;;42.67;22.97;;;;;;;;;;4950382;28;20290;-76
2023/01/23 07:18:44;;;;;;;40.57;22.87;;;;;;;;;;4971870;28;20286;-76
2023/01/23 07:21:10;;;;;;;37.77;21.13;;;;;;;;;;4953149;28;20332;-77
2023/01/23 07:23:36;;;;;;;37.00;20.53;;;;;;;;;;4954264;28;20279;-76
2023/01/23 07:26:08;;;;;;;37.20;20.60;;;;;;;;;;4951789;28;20432;-76
2023/01/23 07:28:35;;;;;;;41.57;23.63;;;;;;;;;;4968159;28;20039;-76
2023/01/23 07:31:01;;;;;;;37.63;21.87;;;;;;;;;;4966489;28;20333;-77
2023/01/23 07:33:27;;;;;;;35.00;20.67;;;;;;;;;;4954638;28;20775;-76
2023/01/23 07:35:53;;;;;;;34.20;20.07;;;;;;;;;;4967260;28;20042;-76
2023/01/23 07:38:19;;;;;;;37.67;21.63;;;;;;;;;;4954099;28;20207;-77
2023/01/23 07:40:45;;;;;;;40.60;21.33;;;;;;;;;;4950113;28;20599;-75
2023/01/23 07:43:13;;;;;;;34.30;19.50;;;;;;;;;;4971103;28;20278;-76
2023/01/23 07:45:42;;;;;;;36.47;20.67;;;;;;;;;;4954947;28;20089;-77
2023/01/23 07:48:10;;;;;;;33.10;19.10;;;;;;;;;;4967522;28;20294;-77
2023/01/23 07:50:36;;;;;;;59.53;31.47;;;;;;;;;;4955327;28;20313;-76
2023/01/23 07:53:03;;;;;;;96.63;47.27;;;;;;;;;;4950781;28;20349;-77
2023/01/23 07:55:29;;;;;;;87.03;44.30;;;;;;;;;;4949532;28;20309;-77
2023/01/23 07:57:57;;;;;;;64.00;36.10;;;;;;;;;;4951031;28;20278;-77
2023/01/23 08:00:24;;;;;;;41.10;24.70;;;;;;;;;;4965884;28;20294;-76
2023/01/23 08:02:50;;;;;;;41.00;23.60;;;;;;;;;;4954527;28;20309;-77
2023/01/23 08:05:16;;;;;;;107.00;67.70;;;;;;;;;;4951167;28;20743;-77
2023/01/23 08:07:42;;;;;;;53.13;37.73;;;;;;;;;;4971742;28;20289;-77
2023/01/23 08:10:08;;;;;;;29.73;16.53;;;;;;;;;;4970246;28;20305;-77
2023/01/23 08:12:34;;;;;;;25.97;16.20;;;;;;;;;;4955388;28;20670;-77
2023/01/23 08:15:00;;;;;;;28.77;17.43;;;;;;;;;;4954851;28;20286;-77
2023/01/23 08:17:26;;;;;;;30.20;16.57;;;;;;;;;;4954665;28;20026;-77
2023/01/23 08:19:52;;;;;;;28.70;17.57;;;;;;;;;;4956931;28;20054;-77
2023/01/23 08:22:21;;;;;;;25.90;15.73;;;;;;;;;;4966098;28;20038;-77
2023/01/23 08:24:47;;;;;;;28.80;17.30;;;;;;;;;;4968114;28;20125;-77
2023/01/23 08:27:13;;;;;;;27.47;16.50;;;;;;;;;;4973014;28;20121;-75
2023/01/23 08:29:39;;;;;;;28.80;17.07;;;;;;;;;;4973533;28;20034;-77
2023/01/23 08:32:05;;;;;;;29.50;17.93;;;;;;;;;;4967533;28;20039;-77
2023/01/23 08:34:31;;;;;;;30.13;18.33;;;;;;;;;;4971282;28;20122;-77
2023/01/23 08:36:57;;;;;;;32.43;19.03;;;;;;;;;;4954662;28;20722;-75
2023/01/23 08:39:23;;;;;;;33.10;19.40;;;;;;;;;;4951036;28;20034;-77
2023/01/23 08:41:50;;;;;;;32.10;18.77;;;;;;;;;;4954644;28;20373;-77
2023/01/23 08:44:16;;;;;;;29.37;18.50;;;;;;;;;;4973615;28;20042;-76
2023/01/23 08:46:43;;;;;;;32.20;18.80;;;;;;;;;;4972067;28;20428;-77
2023/01/23 08:49:09;;;;;;;31.17;19.13;;;;;;;;;;4955703;28;20042;-77
2023/01/23 08:51:35;;;;;;;43.47;24.67;;;;;;;;;;4968025;28;20053;-76
2023/01/23 08:54:01;;;;;;;37.20;22.03;;;;;;;;;;4954010;28;20531;-75
2023/01/23 08:56:27;;;;;;;36.30;21.47;;;;;;;;;;4951705;28;20034;-77
2023/01/23 08:58:53;;;;;;;38.70;24.07;;;;;;;;;;4954388;28;20037;-76
2023/01/23 09:01:21;;;;;;;33.90;21.17;;;;;;;;;;4972702;28;20031;-76
2023/01/23 09:03:47;;;;;;;32.40;20.40;;;;;;;;;;4972363;28;20033;-76
2023/01/23 09:06:16;;;;;;;37.03;20.97;;;;;;;;;;4974119;28;20038;-77
2023/01/23 09:08:42;;;;;;;35.10;19.70;;;;;;;;;;4967532;28;20027;-77
2023/01/23 09:11:09;;;;;;;31.67;19.50;;;;;;;;;;4964646;28;20105;-76
2023/01/23 09:13:35;;;;;;;34.73;21.63;;;;;;;;;;4954086;28;20043;-77
2023/01/23 09:16:01;;;;;;;32.53;19.67;;;;;;;;;;4953968;28;20053;-77
2023/01/23 09:18:30;;;;;;;34.50;20.63;;;;;;;;;;4954725;28;20058;-75
2023/01/23 09:20:56;;;;;;;36.43;21.67;;;;;;;;;;4967727;28;20027;-76
2023/01/23 09:23:22;;;;;;;33.87;20.57;;;;;;;;;;4954425;28;20031;-77
2023/01/23 09:25:48;;;;;;;35.10;21.97;;;;;;;;;;4948699;28;20130;-77
2023/01/23 09:28:17;;;;;;;37.07;22.07;;;;;;;;;;4971239;28;20109;-77
2023/01/23 09:30:43;;;;;;;34.03;21.10;;;;;;;;;;4967773;28;20041;-76
2023/01/23 09:33:09;;;;;;;31.00;19.83;;;;;;;;;;4954462;28;20027;-77
2023/01/23 09:35:35;;;;;;;33.60;19.97;;;;;;;;;;4968048;28;20046;-78
2023/01/23 09:38:05;;;;;;;39.20;22.57;;;;;;;;;;4953986;28;20947;-77
2023/01/23 09:40:51;;;;;;;32.90;18.93;;;;;;;;;;4950671;28;20114;-76
2023/01/23 09:43:36;;;;;;;32.20;19.27;;;;;;;;;;4965219;28;20412;-77
2023/01/23 09:46:07;;;;;;;44.47;25.03;;;;;;;;;;4971798;28;20033;-77
2023/01/23 09:48:36;;;;;;;44.53;25.10;;;;;;;;;;4968833;28;20130;-77
2023/01/23 09:51:06;;;;;;;35.20;20.23;;;;;;;;;;4973638;28;20360;-77
2023/01/23 09:53:36;;;;;;;31.87;20.93;;;;;;;;;;4974115;28;20038;-77
2023/01/23 09:56:06;;;;;;;32.80;19.93;;;;;;;;;;4974255;28;20152;-77
2023/01/23 09:58:45;;;;;;;30.53;20.00;;;;;;;;;;4971805;28;20031;-77
2023/01/23 10:01:14;;;;;;;41.17;30.23;;;;;;;;;;4968977;28;20086;-75
2023/01/23 10:03:40;;;;;;;46.20;33.10;;;;;;;;;;4968015;28;20124;-77
2023/01/23 10:06:27;;;;;;;28.87;17.90;;;;;;;;;;4957720;28;20117;-77
2023/01/23 10:08:53;;;;;;;29.53;17.87;;;;;;;;;;4969730;28;20041;-76
2023/01/23 10:11:42;;;;;;;26.80;16.23;;;;;;;;;;4974748;28;20360;-77
2023/01/23 10:14:21;;;;;;;30.27;18.70;;;;;;;;;;4948243;28;20408;-77
2023/01/23 10:17:00;;;;;;;29.57;17.90;;;;;;;;;;4967473;28;20053;-77
2023/01/23 10:19:40;;;;;;;35.63;21.73;;;;;;;;;;4969038;28;20069;-76
2023/01/23 10:22:25;;;;;;;28.50;17.53;;;;;;;;;;4957201;28;20410;-77
2023/01/23 10:24:55;;;;;;;29.73;17.50;;;;;;;;;;4972237;28;20034;-76
2023/01/23 10:27:23;;;;;;;28.37;16.33;;;;;;;;;;4967780;28;20049;-76
2023/01/23 10:29:57;;;;;;;31.77;19.10;;;;;;;;;;4969617;28;20042;-77
2023/01/23 10:32:27;;;;;;;27.90;16.93;;;;;;;;;;4956813;28;20049;-77
2023/01/23 10:35:03;;;;;;;29.10;17.70;;;;;;;;;;4969471;28;20459;-77
2023/01/23 10:37:48;;;;;;;27.27;17.37;;;;;;;;;;4973466;28;20089;-76
2023/01/23 10:41:12;;;;;;;22.97;14.50;;;;;;;;;;4956861;28;20070;-77
2023/01/23 10:43:18;;;;;;;24.03;15.57;;;;;;;;;;4976791;28;20062;-76
2023/01/23 10:45:46;;;;;;;28.47;16.10;;;;;;;;;;4953183;28;21645;-77
2023/01/23 10:48:29;;;;;;;26.23;15.73;;;;;;;;;;4969719;28;20101;-76
2023/01/23 10:50:55;;;;;;;25.25;15.52;;;;;;;;;;4972693;28;20026;-76
2023/01/23 10:53:21;;;;;;;24.60;14.77;;;;;;;;;;4972986;28;20041;-76
2023/01/23 10:55:47;;;;;;;23.07;15.03;;;;;;;;;;4973503;28;20046;-77
2023/01/23 10:58:26;;;;;;;24.53;15.63;;;;;;;;;;4955985;28;20022;-77
2023/01/23 11:00:52;;;;;;;25.23;15.47;;;;;;;;;;4971006;28;20035;-77
2023/01/23 11:03:21;;;;;;;24.50;14.40;;;;;;;;;;4955763;28;20034;-77
2023/01/23 11:06:01;;;;;;;21.53;14.17;;;;;;;;;;4970290;28;20025;-77
2023/01/23 11:08:28;;;;;;;21.63;13.13;;;;;;;;;;4974798;28;20121;-77
2023/01/23 11:11:11;;;;;;;20.67;13.00;;;;;;;;;;4972590;28;20035;-77
2023/01/23 11:13:37;;;;;;;23.38;15.18;;;;;;;;;;4956316;28;20039;-77
2023/01/23 11:16:03;;;;;;;29.17;14.23;;;;;;;;;;4967886;28;20041;-76
2023/01/23 11:18:33;;;;;;;23.00;14.53;;;;;;;;;;4958523;28;20038;-77
2023/01/23 11:20:59;;;;;;;23.40;14.33;;;;;;;;;;4956315;28;20018;-77
2023/01/23 11:23:26;;;;;;;20.50;13.37;;;;;;;;;;4976885;28;20026;-76
2023/01/23 11:25:53;;;;;;;20.07;13.73;;;;;;;;;;4972888;28;20455;-77
2023/01/23 11:28:29;;;;;;;22.23;13.43;;;;;;;;;;4955750;28;20035;-77
2023/01/23 11:30:55;;;;;;;20.53;13.33;;;;;;;;;;4968384;28;20034;-77
2023/01/23 11:33:24;;;;;;;27.53;13.87;;;;;;;;;;4969468;28;20041;-76
2023/01/23 11:35:56;;;;;;;19.00;13.03;;;;;;;;;;4953062;28;20031;-77
2023/01/23 11:38:26;;;;;;;21.40;13.00;;;;;;;;;;4971846;28;20027;-77
2023/01/23 11:40:52;;;;;;;19.93;13.10;;;;;;;;;;4966763;28;20059;-76
2023/01/23 11:43:20;;;;;;;22.83;14.30;;;;;;;;;;4955593;28;20069;-77
2023/01/23 11:45:56;;;;;;;18.07;11.43;;;;;;;;;;4950216;28;20030;-77
2023/01/23 11:48:34;;;;;;;21.47;12.93;;;;;;;;;;4967217;28;20039;-75
2023/01/23 11:51:13;;;;;;;19.47;11.83;;;;;;;;;;4972891;28;20034;-77
2023/01/23 11:53:42;;;;;;;15.73;9.87;;;;;;;;;;4972259;28;20042;-76
2023/01/23 11:56:22;;;;;;;21.23;11.63;;;;;;;;;;4972990;28;20049;-76
2023/01/23 11:59:04;;;;;;;18.57;11.53;;;;;;;;;;4954899;28;20045;-77
2023/01/23 12:01:40;;;;;;;16.13;10.57;;;;;;;;;;4971781;28;20074;-77
2023/01/23 12:04:25;;;;;;;16.67;11.50;;;;;;;;;;4969103;28;20030;-77
2023/01/23 12:06:54;;;;;;;18.57;11.90;;;;;;;;;;4964969;28;20022;-77
2023/01/23 12:09:21;;;;;;;14.67;10.23;;;;;;;;;;4955037;28;20121;-74
2023/01/23 12:12:06;;;;;;;14.20;9.67;;;;;;;;;;4966223;28;20097;-77
2023/01/23 12:14:51;;;;;;;11.87;7.53;;;;;;;;;;4971809;28;20037;-76
2023/01/23 12:17:29;;;;;;;12.03;7.47;;;;;;;;;;4967293;28;20027;-78
2023/01/23 12:20:03;;;;;;;12.57;8.00;;;;;;;;;;4971618;28;20448;-77
2023/01/23 12:22:33;;;;;;;13.03;7.83;;;;;;;;;;4966637;28;20030;-77
2023/01/23 12:25:05;;;;;;;11.13;7.70;;;;;;;;;;4968353;28;20123;-76
2023/01/23 12:27:44;;;;;;;14.52;10.13;;;;;;;;;;4970131;28;20045;-76
2023/01/23 12:30:28;;;;;;;15.97;10.27;;;;;;;;;;4971920;28;20043;-78
2023/01/23 12:33:13;;;;;;;83.33;32.20;;;;;;;;;;4950912;28;20027;-78
2023/01/23 12:35:47;;;;;;;75.67;29.00;;;;;;;;;;4967893;28;20038;-76
2023/01/23 12:38:22;;;;;;;46.80;17.87;;;;;;;;;;4967712;28;20041;-77
2023/01/23 12:40:58;;;;;;;15.17;8.93;;;;;;;;;;4968060;28;20358;-78
2023/01/23 12:43:40;;;;;;;10.63;7.60;;;;;;;;;;4965554;28;20035;-77
2023/01/23 12:46:18;;;;;;;19.85;12.15;;;;;;;;;;4970451;28;20031;-78
2023/01/23 12:48:48;;;;;;;13.67;8.73;;;;;;;;;;4966669;28;20030;-77
2023/01/23 12:51:19;;;;;;;12.30;8.87;;;;;;;;;;4971680;28;20022;-77
2023/01/23 12:53:50;;;;;;;13.00;10.60;;;;;;;;;;4969596;28;20044;-77
2023/01/23 12:56:23;;;;;;;12.77;7.90;;;;;;;;;;4967569;28;20039;-77
2023/01/23 12:59:00;;;;;;;13.20;9.30;;;;;;;;;;4967806;28;20031;-78
2023/01/23 13:01:41;;;;;;;12.87;7.83;;;;;;;;;;4970751;28;20051;-76
2023/01/23 13:04:16;;;;;;;17.57;10.83;;;;;;;;;;4964395;28;20039;-77
2023/01/23 13:06:42;;;;;;;26.37;13.07;;;;;;;;;;4968410;28;20132;-76
2023/01/23 13:09:24;;;;;;;23.07;14.70;;;;;;;;;;4966963;28;20087;-76
2023/01/23 13:11:56;;;;;;;18.83;12.03;;;;;;;;;;4971296;28;21707;-77
2023/01/23 13:14:22;;;;;;;18.67;9.63;;;;;;;;;;4971656;28;20046;-77
2023/01/23 13:16:49;;;;;;;37.33;17.10;;;;;;;;;;4970770;28;20038;-77
2023/01/23 13:22:26;;;;;;;37.37;16.73;;;;;;;;;;4974556;28;20096;-78
2023/01/23 13:25:11;;;;;;;22.10;11.97;;;;;;;;;;4974973;28;20042;-77
2023/01/23 13:27:46;;;;;;;14.00;8.23;;;;;;;;;;4957427;28;20055;-77
2023/01/23 13:30:31;;;;;;;13.87;8.30;;;;;;;;;;4975379;28;20085;-78
2023/01/23 13:33:00;;;;;;;17.73;11.00;;;;;;;;;;4972175;28;20038;-76
2023/01/23 13:35:43;;;;;;;31.30;16.23;;;;;;;;;;4975789;28;20049;-78
2023/01/23 13:38:21;;;;;;;36.17;17.03;;;;;;;;;;4973450;28;20105;-78
2023/01/23 13:43:49;;;;;;;31.27;13.40;;;;;;;;;;4974930;28;20055;-77
2023/01/23 13:46:33;;;;;;;23.50;13.00;;;;;;;;;;4968269;28;20355;-78
2023/01/23 13:51:48;;;;;;;43.07;21.33;;;;;;;;;;4975086;28;20054;-76
2023/01/23 13:57:02;;;;;;;11.30;6.97;;;;;;;;;;4974572;28;20104;-76
2023/01/23 13:59:28;;;;;;;15.37;9.17;;;;;;;;;;4974512;28;20034;-76
2023/01/23 14:07:42;;;;;;;12.53;9.23;;;;;;;;;;4974180;28;20150;-77
2023/01/23 14:10:27;;;;;;;11.47;9.73;;;;;;;;;;4969606;28;20076;-75
2023/01/23 14:13:05;;;;;;;9.93;5.30;;;;;;;;;;4970619;28;20379;-75
2023/01/23 14:18:19;;;;;;;9.43;6.90;;;;;;;;;;4974720;28;20371;-77
2023/01/23 14:20:46;;;;;;;10.07;6.20;;;;;;;;;;4974151;28;20340;-76
2023/01/23 14:23:45;;;;;;;10.03;7.77;;;;;;;;;;4968214;28;20117;-76
2023/01/23 14:26:14;;;;;;;7.80;5.57;;;;;;;;;;4923709;28;20041;-77
2023/01/23 14:28:49;;;;;;;10.53;6.27;;;;;;;;;;4974759;28;20023;-76
2023/01/23 14:31:21;;;;;;;7.53;6.13;;;;;;;;;;4956231;28;20023;-75
2023/01/23 14:33:47;;;;;;;14.60;9.77;;;;;;;;;;4972040;28;20034;-77
2023/01/23 14:36:16;;;;;;;18.83;10.53;;;;;;;;;;4974200;28;20038;-76
2023/01/23 14:38:44;;;;;;;19.57;10.30;;;;;;;;;;4960809;28;20049;-77
2023/01/23 14:41:10;;;;;;;17.97;10.70;;;;;;;;;;4975571;28;20031;-77
2023/01/23 14:43:37;;;;;;;18.13;11.63;;;;;;;;;;4956839;28;20034;-76
2023/01/23 14:46:10;;;;;;;17.70;11.37;;;;;;;;;;4958504;28;20046;-76
2023/01/23 14:48:38;;;;;;;18.13;10.77;;;;;;;;;;4970107;28;20039;-78
2023/01/23 14:51:09;;;;;;;21.93;12.47;;;;;;;;;;4972729;28;20096;-76
2023/01/23 14:53:39;;;;;;;20.60;11.33;;;;;;;;;;4953070;28;20038;-77
2023/01/23 14:56:08;;;;;;;22.17;12.17;;;;;;;;;;4956742;28;20084;-77